sensor_id;sensor_type;location;lat;lon;timestamp;temperature;humidity
31769;DHT22;18342;52.132;21.048;2022-08-21T00:02:22;23.80;99.90
31769;DHT22;18342;52.132;21.048;2022-08-21T00:04:48;23.80;99.90
31769;DHT22;18342;52.132;21.048;2022-08-21T00:07:16;23.80;99.90
31769;DHT22;18342;52.132;21.048;2022-08-21T00:09:41;23.80;99.90
31769;DHT22;18342;52.132;21.048;2022-08-21T00:12:07;23.80;99.90
31769;DHT22;18342;52.132;21.048;2022-08-21T00:14:33;23.80;99.90
31769;DHT22;18342;52.132;21.048;2022-08-21T00:17:00;23.70;99.90
31769;DHT22;18342;52.132;21.048;2022-08-21T00:19:26;23.70;99.90
31769;DHT22;18342;52.132;21.048;2022-08-21T00:21:53;23.70;99.90
31769;DHT22;18342;52.132;21.048;2022-08-21T00:24:20;23.70;99.90
31769;DHT22;18342;52.132;21.048;2022-08-21T00:26:46;23.70;99.90
31769;DHT22;18342;52.132;21.048;2022-08-21T00:29:13;23.60;99.90
31769;DHT22;18342;52.132;21.048;2022-08-21T00:31:39;23.60;99.90
31769;DHT22;18342;52.132;21.048;2022-08-21T00:34:04;23.60;99.90
31769;DHT22;18342;52.132;21.048;2022-08-21T00:36:30;23.60;99.90
31769;DHT22;18342;52.132;21.048;2022-08-21T00:38:56;23.50;99.90
31769;DHT22;18342;52.132;21.048;2022-08-21T00:41:22;23.50;99.90
31769;DHT22;18342;52.132;21.048;2022-08-21T00:43:49;23.50;99.90
31769;DHT22;18342;52.132;21.048;2022-08-21T00:46:16;23.40;99.90
31769;DHT22;18342;52.132;21.048;2022-08-21T00:48:41;23.50;99.90
31769;DHT22;18342;52.132;21.048;2022-08-21T00:51:11;23.40;99.90
31769;DHT22;18342;52.132;21.048;2022-08-21T00:53:41;23.40;99.90
31769;DHT22;18342;52.132;21.048;2022-08-21T00:56:09;23.40;99.90
31769;DHT22;18342;52.132;21.048;2022-08-21T00:58:37;23.50;99.90
31769;DHT22;18342;52.132;21.048;2022-08-21T01:01:05;23.50;99.90
31769;DHT22;18342;52.132;21.048;2022-08-21T01:03:31;23.50;99.90
31769;DHT22;18342;52.132;21.048;2022-08-21T01:05:56;23.50;99.90
31769;DHT22;18342;52.132;21.048;2022-08-21T01:08:23;23.50;99.90
31769;DHT22;18342;52.132;21.048;2022-08-21T01:10:49;23.50;99.90
31769;DHT22;18342;52.132;21.048;2022-08-21T01:13:17;23.50;99.90
31769;DHT22;18342;52.132;21.048;2022-08-21T01:15:45;23.50;99.90
31769;DHT22;18342;52.132;21.048;2022-08-21T01:18:12;23.50;99.90
31769;DHT22;18342;52.132;21.048;2022-08-21T01:20:43;23.50;99.90
31769;DHT22;18342;52.132;21.048;2022-08-21T01:23:09;23.40;99.90
31769;DHT22;18342;52.132;21.048;2022-08-21T01:25:35;23.40;99.90
31769;DHT22;18342;52.132;21.048;2022-08-21T01:28:07;23.40;99.90
31769;DHT22;18342;52.132;21.048;2022-08-21T01:30:35;23.40;99.90
31769;DHT22;18342;52.132;21.048;2022-08-21T01:33:02;23.40;99.90
31769;DHT22;18342;52.132;21.048;2022-08-21T01:35:27;23.30;99.90
31769;DHT22;18342;52.132;21.048;2022-08-21T01:37:53;23.30;99.90
31769;DHT22;18342;52.132;21.048;2022-08-21T01:40:19;23.30;99.90
31769;DHT22;18342;52.132;21.048;2022-08-21T01:42:45;23.30;99.90
31769;DHT22;18342;52.132;21.048;2022-08-21T01:45:13;23.20;99.90
31769;DHT22;18342;52.132;21.048;2022-08-21T01:47:39;23.20;99.90
31769;DHT22;18342;52.132;21.048;2022-08-21T01:50:07;23.20;99.90
31769;DHT22;18342;52.132;21.048;2022-08-21T01:52:33;23.20;99.90
31769;DHT22;18342;52.132;21.048;2022-08-21T01:54:59;23.10;99.90
31769;DHT22;18342;52.132;21.048;2022-08-21T01:57:25;23.10;99.90
31769;DHT22;18342;52.132;21.048;2022-08-21T01:59:51;23.20;99.90
31769;DHT22;18342;52.132;21.048;2022-08-21T02:02:16;23.10;99.90
31769;DHT22;18342;52.132;21.048;2022-08-21T02:04:42;23.10;99.90
31769;DHT22;18342;52.132;21.048;2022-08-21T02:07:08;23.10;99.90
31769;DHT22;18342;52.132;21.048;2022-08-21T02:09:33;23.10;99.90
31769;DHT22;18342;52.132;21.048;2022-08-21T02:11:59;23.10;99.90
31769;DHT22;18342;52.132;21.048;2022-08-21T02:14:25;23.10;99.90
31769;DHT22;18342;52.132;21.048;2022-08-21T02:16:50;23.00;99.90
31769;DHT22;18342;52.132;21.048;2022-08-21T02:19:16;23.00;99.90
31769;DHT22;18342;52.132;21.048;2022-08-21T02:21:42;23.00;99.90
31769;DHT22;18342;52.132;21.048;2022-08-21T02:24:09;23.00;99.90
31769;DHT22;18342;52.132;21.048;2022-08-21T02:26:35;23.00;99.90
31769;DHT22;18342;52.132;21.048;2022-08-21T02:29:01;23.00;99.90
31769;DHT22;18342;52.132;21.048;2022-08-21T02:31:27;22.90;99.90
31769;DHT22;18342;52.132;21.048;2022-08-21T02:33:52;22.90;99.90
31769;DHT22;18342;52.132;21.048;2022-08-21T02:36:18;22.80;99.90
31769;DHT22;18342;52.132;21.048;2022-08-21T02:38:44;22.80;99.90
31769;DHT22;18342;52.132;21.048;2022-08-21T02:41:16;22.80;99.90
31769;DHT22;18342;52.132;21.048;2022-08-21T02:43:42;22.80;99.90
31769;DHT22;18342;52.132;21.048;2022-08-21T02:46:09;22.70;99.90
31769;DHT22;18342;52.132;21.048;2022-08-21T02:48:35;22.70;99.90
31769;DHT22;18342;52.132;21.048;2022-08-21T02:51:14;22.70;99.90
31769;DHT22;18342;52.132;21.048;2022-08-21T02:53:41;22.70;99.90
31769;DHT22;18342;52.132;21.048;2022-08-21T02:56:10;22.70;99.90
31769;DHT22;18342;52.132;21.048;2022-08-21T02:58:39;22.60;99.90
31769;DHT22;18342;52.132;21.048;2022-08-21T03:01:05;22.60;99.90
31769;DHT22;18342;52.132;21.048;2022-08-21T03:03:35;22.60;99.90
31769;DHT22;18342;52.132;21.048;2022-08-21T03:06:00;22.60;99.90
31769;DHT22;18342;52.132;21.048;2022-08-21T03:08:26;22.50;99.90
31769;DHT22;18342;52.132;21.048;2022-08-21T03:10:52;22.60;99.90
31769;DHT22;18342;52.132;21.048;2022-08-21T03:13:19;22.50;99.90
31769;DHT22;18342;52.132;21.048;2022-08-21T03:15:49;22.60;99.90
31769;DHT22;18342;52.132;21.048;2022-08-21T03:18:15;22.60;99.90
31769;DHT22;18342;52.132;21.048;2022-08-21T03:20:41;22.60;99.90
31769;DHT22;18342;52.132;21.048;2022-08-21T03:23:08;22.50;99.90
31769;DHT22;18342;52.132;21.048;2022-08-21T03:25:34;22.50;99.90
31769;DHT22;18342;52.132;21.048;2022-08-21T03:28:01;22.50;99.90
31769;DHT22;18342;52.132;21.048;2022-08-21T03:30:27;22.50;99.90
31769;DHT22;18342;52.132;21.048;2022-08-21T03:32:53;22.40;99.90
31769;DHT22;18342;52.132;21.048;2022-08-21T03:35:20;22.40;99.90
31769;DHT22;18342;52.132;21.048;2022-08-21T03:37:46;22.40;99.90
31769;DHT22;18342;52.132;21.048;2022-08-21T03:40:15;22.40;99.90
31769;DHT22;18342;52.132;21.048;2022-08-21T03:42:41;22.40;99.90
31769;DHT22;18342;52.132;21.048;2022-08-21T03:45:07;22.40;99.90
31769;DHT22;18342;52.132;21.048;2022-08-21T03:47:33;22.30;99.90
31769;DHT22;18342;52.132;21.048;2022-08-21T03:50:00;22.30;99.90
31769;DHT22;18342;52.132;21.048;2022-08-21T03:52:26;22.30;99.90
31769;DHT22;18342;52.132;21.048;2022-08-21T03:54:52;22.30;99.90
31769;DHT22;18342;52.132;21.048;2022-08-21T03:57:17;22.20;99.90
31769;DHT22;18342;52.132;21.048;2022-08-21T03:59:43;22.20;99.90
31769;DHT22;18342;52.132;21.048;2022-08-21T04:02:10;22.20;99.90
31769;DHT22;18342;52.132;21.048;2022-08-21T04:04:39;22.20;99.90
31769;DHT22;18342;52.132;21.048;2022-08-21T04:07:04;22.20;99.90
31769;DHT22;18342;52.132;21.048;2022-08-21T04:09:30;22.10;99.90
31769;DHT22;18342;52.132;21.048;2022-08-21T04:11:56;22.20;99.90
31769;DHT22;18342;52.132;21.048;2022-08-21T04:14:22;22.20;99.90
31769;DHT22;18342;52.132;21.048;2022-08-21T04:16:48;22.10;99.90
31769;DHT22;18342;52.132;21.048;2022-08-21T04:19:14;22.10;99.90
31769;DHT22;18342;52.132;21.048;2022-08-21T04:21:41;22.10;99.90
31769;DHT22;18342;52.132;21.048;2022-08-21T04:24:09;22.10;99.90
31769;DHT22;18342;52.132;21.048;2022-08-21T04:26:36;22.10;99.90
31769;DHT22;18342;52.132;21.048;2022-08-21T04:29:02;22.00;99.90
31769;DHT22;18342;52.132;21.048;2022-08-21T04:31:30;22.00;99.90
31769;DHT22;18342;52.132;21.048;2022-08-21T04:33:55;22.10;99.90
31769;DHT22;18342;52.132;21.048;2022-08-21T04:36:22;22.10;99.90
31769;DHT22;18342;52.132;21.048;2022-08-21T04:38:48;22.10;99.90
31769;DHT22;18342;52.132;21.048;2022-08-21T04:41:14;22.10;99.90
31769;DHT22;18342;52.132;21.048;2022-08-21T04:43:40;22.20;99.90
31769;DHT22;18342;52.132;21.048;2022-08-21T04:46:06;22.10;99.90
31769;DHT22;18342;52.132;21.048;2022-08-21T04:48:32;22.10;99.90
31769;DHT22;18342;52.132;21.048;2022-08-21T04:51:17;22.10;99.90
31769;DHT22;18342;52.132;21.048;2022-08-21T04:53:51;22.10;99.90
31769;DHT22;18342;52.132;21.048;2022-08-21T04:56:33;22.10;99.90
31769;DHT22;18342;52.132;21.048;2022-08-21T04:59:02;22.10;99.90
31769;DHT22;18342;52.132;21.048;2022-08-21T05:01:34;22.10;99.90
31769;DHT22;18342;52.132;21.048;2022-08-21T05:04:02;22.10;99.90
31769;DHT22;18342;52.132;21.048;2022-08-21T05:06:33;22.10;99.90
31769;DHT22;18342;52.132;21.048;2022-08-21T05:09:00;22.00;99.90
31769;DHT22;18342;52.132;21.048;2022-08-21T05:11:27;22.00;99.90
31769;DHT22;18342;52.132;21.048;2022-08-21T05:13:53;22.00;99.90
31769;DHT22;18342;52.132;21.048;2022-08-21T05:16:18;22.10;99.90
31769;DHT22;18342;52.132;21.048;2022-08-21T05:18:44;22.10;99.90
31769;DHT22;18342;52.132;21.048;2022-08-21T05:21:10;22.20;99.90
31769;DHT22;18342;52.132;21.048;2022-08-21T05:23:36;22.20;99.90
31769;DHT22;18342;52.132;21.048;2022-08-21T05:26:02;22.30;99.90
31769;DHT22;18342;52.132;21.048;2022-08-21T05:28:30;22.30;99.90
31769;DHT22;18342;52.132;21.048;2022-08-21T05:30:56;22.30;99.90
31769;DHT22;18342;52.132;21.048;2022-08-21T05:33:22;22.20;99.90
31769;DHT22;18342;52.132;21.048;2022-08-21T05:35:50;22.20;99.90
31769;DHT22;18342;52.132;21.048;2022-08-21T05:38:17;22.20;99.90
31769;DHT22;18342;52.132;21.048;2022-08-21T05:40:43;22.20;99.90
31769;DHT22;18342;52.132;21.048;2022-08-21T05:43:09;22.20;99.90
31769;DHT22;18342;52.132;21.048;2022-08-21T05:45:35;22.20;99.90
31769;DHT22;18342;52.132;21.048;2022-08-21T05:48:10;22.30;99.90
31769;DHT22;18342;52.132;21.048;2022-08-21T05:50:36;22.30;99.90
31769;DHT22;18342;52.132;21.048;2022-08-21T05:53:04;22.30;99.90
31769;DHT22;18342;52.132;21.048;2022-08-21T05:55:29;22.30;99.90
31769;DHT22;18342;52.132;21.048;2022-08-21T05:57:55;22.40;99.90
31769;DHT22;18342;52.132;21.048;2022-08-21T06:00:21;22.50;99.90
31769;DHT22;18342;52.132;21.048;2022-08-21T06:02:48;22.50;99.90
31769;DHT22;18342;52.132;21.048;2022-08-21T06:05:16;22.50;99.90
31769;DHT22;18342;52.132;21.048;2022-08-21T06:07:42;22.50;99.90
31769;DHT22;18342;52.132;21.048;2022-08-21T06:10:08;22.60;99.90
31769;DHT22;18342;52.132;21.048;2022-08-21T06:12:33;22.70;99.90
31769;DHT22;18342;52.132;21.048;2022-08-21T06:14:59;22.80;99.90
31769;DHT22;18342;52.132;21.048;2022-08-21T06:17:25;22.80;99.90
31769;DHT22;18342;52.132;21.048;2022-08-21T06:19:52;22.80;99.90
31769;DHT22;18342;52.132;21.048;2022-08-21T06:22:18;22.90;99.90
31769;DHT22;18342;52.132;21.048;2022-08-21T06:24:43;23.00;99.90
31769;DHT22;18342;52.132;21.048;2022-08-21T06:27:09;23.00;99.90
31769;DHT22;18342;52.132;21.048;2022-08-21T06:29:35;23.10;99.90
31769;DHT22;18342;52.132;21.048;2022-08-21T06:32:02;23.20;99.90
31769;DHT22;18342;52.132;21.048;2022-08-21T06:34:28;23.30;99.90
31769;DHT22;18342;52.132;21.048;2022-08-21T06:36:53;23.40;99.90
31769;DHT22;18342;52.132;21.048;2022-08-21T06:39:19;23.50;99.90
31769;DHT22;18342;52.132;21.048;2022-08-21T06:41:45;23.50;99.90
31769;DHT22;18342;52.132;21.048;2022-08-21T06:44:11;23.50;99.90
31769;DHT22;18342;52.132;21.048;2022-08-21T06:46:37;23.60;99.90
31769;DHT22;18342;52.132;21.048;2022-08-21T06:49:02;23.60;99.90
31769;DHT22;18342;52.132;21.048;2022-08-21T06:51:28;23.60;99.90
31769;DHT22;18342;52.132;21.048;2022-08-21T06:53:55;23.50;99.90
31769;DHT22;18342;52.132;21.048;2022-08-21T06:56:21;23.50;99.90
31769;DHT22;18342;52.132;21.048;2022-08-21T06:58:46;23.60;99.90
31769;DHT22;18342;52.132;21.048;2022-08-21T07:01:12;23.60;99.90
31769;DHT22;18342;52.132;21.048;2022-08-21T07:03:40;23.70;99.90
31769;DHT22;18342;52.132;21.048;2022-08-21T07:06:07;23.80;99.90
31769;DHT22;18342;52.132;21.048;2022-08-21T07:08:33;23.80;99.90
31769;DHT22;18342;52.132;21.048;2022-08-21T07:11:01;23.90;99.90
31769;DHT22;18342;52.132;21.048;2022-08-21T07:13:28;24.00;99.90
31769;DHT22;18342;52.132;21.048;2022-08-21T07:15:54;24.00;99.90
31769;DHT22;18342;52.132;21.048;2022-08-21T07:18:19;24.00;99.90
31769;DHT22;18342;52.132;21.048;2022-08-21T07:20:46;24.10;99.90
31769;DHT22;18342;52.132;21.048;2022-08-21T07:23:24;24.00;99.90
31769;DHT22;18342;52.132;21.048;2022-08-21T07:25:51;24.00;99.90
31769;DHT22;18342;52.132;21.048;2022-08-21T07:28:17;24.10;99.90
31769;DHT22;18342;52.132;21.048;2022-08-21T07:30:43;24.10;99.90
31769;DHT22;18342;52.132;21.048;2022-08-21T07:33:09;24.10;99.90
31769;DHT22;18342;52.132;21.048;2022-08-21T07:35:35;24.20;99.90
31769;DHT22;18342;52.132;21.048;2022-08-21T07:38:01;24.10;99.90
31769;DHT22;18342;52.132;21.048;2022-08-21T07:40:26;24.20;99.90
31769;DHT22;18342;52.132;21.048;2022-08-21T07:42:52;24.20;99.90
31769;DHT22;18342;52.132;21.048;2022-08-21T07:45:22;24.30;99.90
31769;DHT22;18342;52.132;21.048;2022-08-21T07:47:50;24.30;99.90
31769;DHT22;18342;52.132;21.048;2022-08-21T07:50:16;24.40;99.90
31769;DHT22;18342;52.132;21.048;2022-08-21T07:52:43;24.50;99.90
31769;DHT22;18342;52.132;21.048;2022-08-21T07:55:11;24.60;99.90
31769;DHT22;18342;52.132;21.048;2022-08-21T07:57:38;24.50;99.90
31769;DHT22;18342;52.132;21.048;2022-08-21T08:00:05;24.60;99.90
31769;DHT22;18342;52.132;21.048;2022-08-21T08:02:32;24.70;99.90
31769;DHT22;18342;52.132;21.048;2022-08-21T08:05:05;24.80;99.90
31769;DHT22;18342;52.132;21.048;2022-08-21T08:07:31;24.80;99.90
31769;DHT22;18342;52.132;21.048;2022-08-21T08:09:57;24.90;99.90
31769;DHT22;18342;52.132;21.048;2022-08-21T08:12:23;25.00;99.90
31769;DHT22;18342;52.132;21.048;2022-08-21T08:14:58;25.10;99.90
31769;DHT22;18342;52.132;21.048;2022-08-21T08:17:25;25.30;99.90
31769;DHT22;18342;52.132;21.048;2022-08-21T08:19:51;25.40;99.90
31769;DHT22;18342;52.132;21.048;2022-08-21T08:22:20;25.50;99.90
31769;DHT22;18342;52.132;21.048;2022-08-21T08:24:47;25.70;99.90
31769;DHT22;18342;52.132;21.048;2022-08-21T08:27:14;25.80;99.90
31769;DHT22;18342;52.132;21.048;2022-08-21T08:29:39;25.90;99.90
31769;DHT22;18342;52.132;21.048;2022-08-21T08:32:05;26.00;99.90
31769;DHT22;18342;52.132;21.048;2022-08-21T08:34:33;26.20;99.90
31769;DHT22;18342;52.132;21.048;2022-08-21T08:36:59;26.20;99.90
31769;DHT22;18342;52.132;21.048;2022-08-21T08:39:25;26.30;99.90
31769;DHT22;18342;52.132;21.048;2022-08-21T08:42:11;26.40;99.90
31769;DHT22;18342;52.132;21.048;2022-08-21T08:44:43;26.50;99.90
31769;DHT22;18342;52.132;21.048;2022-08-21T08:47:12;26.50;99.90
31769;DHT22;18342;52.132;21.048;2022-08-21T08:50:05;26.60;99.90
31769;DHT22;18342;52.132;21.048;2022-08-21T08:52:46;26.70;99.90
31769;DHT22;18342;52.132;21.048;2022-08-21T08:55:17;26.70;99.90
31769;DHT22;18342;52.132;21.048;2022-08-21T08:57:46;26.90;99.90
31769;DHT22;18342;52.132;21.048;2022-08-21T09:00:15;26.90;99.90
31769;DHT22;18342;52.132;21.048;2022-08-21T09:02:43;26.90;99.90
31769;DHT22;18342;52.132;21.048;2022-08-21T09:05:25;26.90;99.90
31769;DHT22;18342;52.132;21.048;2022-08-21T09:11:03;27.00;99.90
31769;DHT22;18342;52.132;21.048;2022-08-21T09:13:50;27.00;99.90
31769;DHT22;18342;52.132;21.048;2022-08-21T09:24:51;27.40;99.90
31769;DHT22;18342;52.132;21.048;2022-08-21T09:27:19;27.50;99.90
31769;DHT22;18342;52.132;21.048;2022-08-21T09:29:50;27.50;99.90
31769;DHT22;18342;52.132;21.048;2022-08-21T09:32:18;27.40;99.90
31769;DHT22;18342;52.132;21.048;2022-08-21T09:34:56;27.40;99.90
31769;DHT22;18342;52.132;21.048;2022-08-21T09:37:23;27.40;99.90
31769;DHT22;18342;52.132;21.048;2022-08-21T09:39:49;27.40;99.90
31769;DHT22;18342;52.132;21.048;2022-08-21T09:42:26;27.30;99.90
31769;DHT22;18342;52.132;21.048;2022-08-21T09:45:11;27.20;99.90
31769;DHT22;18342;52.132;21.048;2022-08-21T09:47:38;27.10;99.90
31769;DHT22;18342;52.132;21.048;2022-08-21T09:50:10;27.00;99.90
31769;DHT22;18342;52.132;21.048;2022-08-21T09:52:43;26.90;99.90
31769;DHT22;18342;52.132;21.048;2022-08-21T09:55:16;26.80;99.90
31769;DHT22;18342;52.132;21.048;2022-08-21T09:58:03;26.70;99.90
31769;DHT22;18342;52.132;21.048;2022-08-21T10:00:31;26.60;99.90
31769;DHT22;18342;52.132;21.048;2022-08-21T10:05:38;26.60;99.90
31769;DHT22;18342;52.132;21.048;2022-08-21T10:08:04;26.70;99.90
31769;DHT22;18342;52.132;21.048;2022-08-21T10:10:32;26.90;99.90
31769;DHT22;18342;52.132;21.048;2022-08-21T10:18:51;27.50;99.90
31769;DHT22;18342;52.132;21.048;2022-08-21T10:24:11;27.40;99.90
31769;DHT22;18342;52.132;21.048;2022-08-21T10:29:39;27.20;99.90
31769;DHT22;18342;52.132;21.048;2022-08-21T10:32:39;27.10;99.90
31769;DHT22;18342;52.132;21.048;2022-08-21T10:35:33;27.00;99.90
31769;DHT22;18342;52.132;21.048;2022-08-21T10:40:42;26.80;99.90
31769;DHT22;18342;52.132;21.048;2022-08-21T10:47:18;26.70;99.90
31769;DHT22;18342;52.132;21.048;2022-08-21T10:54:52;27.10;99.90
31769;DHT22;18342;52.132;21.048;2022-08-21T10:57:49;27.20;99.90
31769;DHT22;18342;52.132;21.048;2022-08-21T11:00:22;27.40;99.90
31769;DHT22;18342;52.132;21.048;2022-08-21T11:02:58;27.60;99.90
31769;DHT22;18342;52.132;21.048;2022-08-21T11:05:40;27.60;99.90
31769;DHT22;18342;52.132;21.048;2022-08-21T11:08:11;27.50;99.90
31769;DHT22;18342;52.132;21.048;2022-08-21T11:10:52;27.40;99.90
31769;DHT22;18342;52.132;21.048;2022-08-21T11:13:46;27.30;99.90
31769;DHT22;18342;52.132;21.048;2022-08-21T11:18:49;27.10;99.90
31769;DHT22;18342;52.132;21.048;2022-08-21T11:21:36;27.10;99.90
31769;DHT22;18342;52.132;21.048;2022-08-21T11:29:57;27.40;99.90
31769;DHT22;18342;52.132;21.048;2022-08-21T11:45:58;27.60;99.90
31769;DHT22;18342;52.132;21.048;2022-08-21T11:51:33;27.40;99.90
31769;DHT22;18342;52.132;21.048;2022-08-21T11:56:48;27.20;99.90
31769;DHT22;18342;52.132;21.048;2022-08-21T11:59:31;27.20;99.90
31769;DHT22;18342;52.132;21.048;2022-08-21T12:01:58;27.10;99.90
31769;DHT22;18342;52.132;21.048;2022-08-21T12:04:34;27.10;99.90
31769;DHT22;18342;52.132;21.048;2022-08-21T12:07:38;27.10;99.90
31769;DHT22;18342;52.132;21.048;2022-08-21T12:10:07;27.00;99.90
31769;DHT22;18342;52.132;21.048;2022-08-21T12:12:36;26.90;99.90
31769;DHT22;18342;52.132;21.048;2022-08-21T12:20:37;26.80;99.90
31769;DHT22;18342;52.132;21.048;2022-08-21T12:28:11;26.80;99.90
31769;DHT22;18342;52.132;21.048;2022-08-21T12:30:43;26.90;99.90
31769;DHT22;18342;52.132;21.048;2022-08-21T12:33:32;26.90;99.90
31769;DHT22;18342;52.132;21.048;2022-08-21T12:36:15;26.80;99.90
31769;DHT22;18342;52.132;21.048;2022-08-21T12:41:22;26.80;99.90
31769;DHT22;18342;52.132;21.048;2022-08-21T12:44:04;26.80;99.90
31769;DHT22;18342;52.132;21.048;2022-08-21T12:46:37;26.80;99.90
31769;DHT22;18342;52.132;21.048;2022-08-21T12:49:18;26.80;99.90
31769;DHT22;18342;52.132;21.048;2022-08-21T12:51:59;26.90;99.90
31769;DHT22;18342;52.132;21.048;2022-08-21T12:54:29;26.90;99.90
31769;DHT22;18342;52.132;21.048;2022-08-21T12:57:00;27.00;99.90
31769;DHT22;18342;52.132;21.048;2022-08-21T12:59:27;27.00;99.90
31769;DHT22;18342;52.132;21.048;2022-08-21T13:01:53;27.10;99.90
31769;DHT22;18342;52.132;21.048;2022-08-21T13:04:25;27.10;99.90
31769;DHT22;18342;52.132;21.048;2022-08-21T13:06:54;27.10;99.90
31769;DHT22;18342;52.132;21.048;2022-08-21T13:09:26;27.10;99.90
31769;DHT22;18342;52.132;21.048;2022-08-21T13:11:52;27.00;99.90
31769;DHT22;18342;52.132;21.048;2022-08-21T13:14:41;27.00;99.90
31769;DHT22;18342;52.132;21.048;2022-08-21T13:17:09;26.90;99.90
31769;DHT22;18342;52.132;21.048;2022-08-21T13:19:35;26.90;99.90
31769;DHT22;18342;52.132;21.048;2022-08-21T13:22:01;26.90;99.90
31769;DHT22;18342;52.132;21.048;2022-08-21T13:24:34;26.80;99.90
31769;DHT22;18342;52.132;21.048;2022-08-21T13:27:01;26.80;99.90
31769;DHT22;18342;52.132;21.048;2022-08-21T13:29:32;26.80;99.90
31769;DHT22;18342;52.132;21.048;2022-08-21T13:32:02;26.80;99.90
31769;DHT22;18342;52.132;21.048;2022-08-21T13:34:34;26.80;99.90
31769;DHT22;18342;52.132;21.048;2022-08-21T13:37:04;26.90;99.90
31769;DHT22;18342;52.132;21.048;2022-08-21T13:39:30;26.90;99.90
31769;DHT22;18342;52.132;21.048;2022-08-21T13:41:59;26.90;99.90
31769;DHT22;18342;52.132;21.048;2022-08-21T13:44:41;26.90;99.90
31769;DHT22;18342;52.132;21.048;2022-08-21T13:47:10;26.90;99.90
31769;DHT22;18342;52.132;21.048;2022-08-21T13:49:39;26.90;99.90
31769;DHT22;18342;52.132;21.048;2022-08-21T13:52:22;26.90;99.90
31769;DHT22;18342;52.132;21.048;2022-08-21T13:55:00;26.90;99.90
31769;DHT22;18342;52.132;21.048;2022-08-21T13:57:28;26.90;99.90
31769;DHT22;18342;52.132;21.048;2022-08-21T14:02:44;26.80;99.90
31769;DHT22;18342;52.132;21.048;2022-08-21T14:05:25;26.80;99.90
31769;DHT22;18342;52.132;21.048;2022-08-21T14:08:02;26.80;99.90
31769;DHT22;18342;52.132;21.048;2022-08-21T14:10:29;26.80;99.90
31769;DHT22;18342;52.132;21.048;2022-08-21T14:13:02;26.70;99.90
31769;DHT22;18342;52.132;21.048;2022-08-21T14:15:32;26.60;99.90
31769;DHT22;18342;52.132;21.048;2022-08-21T14:18:14;26.60;99.90
31769;DHT22;18342;52.132;21.048;2022-08-21T14:20:41;26.60;99.90
31769;DHT22;18342;52.132;21.048;2022-08-21T14:23:07;26.50;99.90
31769;DHT22;18342;52.132;21.048;2022-08-21T14:25:41;26.60;99.90
31769;DHT22;18342;52.132;21.048;2022-08-21T14:28:40;26.60;99.90
31769;DHT22;18342;52.132;21.048;2022-08-21T14:31:20;26.50;99.90
31769;DHT22;18342;52.132;21.048;2022-08-21T14:33:46;26.50;99.90
31769;DHT22;18342;52.132;21.048;2022-08-21T14:36:11;26.50;99.90
31769;DHT22;18342;52.132;21.048;2022-08-21T14:38:39;26.50;99.90
31769;DHT22;18342;52.132;21.048;2022-08-21T14:41:19;26.50;99.90
31769;DHT22;18342;52.132;21.048;2022-08-21T14:43:47;26.40;99.90
31769;DHT22;18342;52.132;21.048;2022-08-21T14:46:19;26.40;99.90
31769;DHT22;18342;52.132;21.048;2022-08-21T14:48:45;26.50;99.90
31769;DHT22;18342;52.132;21.048;2022-08-21T14:51:12;26.50;99.90
31769;DHT22;18342;52.132;21.048;2022-08-21T14:53:38;26.50;99.90
31769;DHT22;18342;52.132;21.048;2022-08-21T14:56:04;26.50;99.90
31769;DHT22;18342;52.132;21.048;2022-08-21T14:58:31;26.50;99.90
31769;DHT22;18342;52.132;21.048;2022-08-21T15:00:57;26.50;99.90
31769;DHT22;18342;52.132;21.048;2022-08-21T15:03:24;26.50;99.90
31769;DHT22;18342;52.132;21.048;2022-08-21T15:05:50;26.50;99.90
31769;DHT22;18342;52.132;21.048;2022-08-21T15:08:16;26.40;99.90
31769;DHT22;18342;52.132;21.048;2022-08-21T15:10:42;26.40;99.90
31769;DHT22;18342;52.132;21.048;2022-08-21T15:13:08;26.50;99.90
31769;DHT22;18342;52.132;21.048;2022-08-21T15:15:39;26.50;99.90
31769;DHT22;18342;52.132;21.048;2022-08-21T15:18:06;26.50;99.90
31769;DHT22;18342;52.132;21.048;2022-08-21T15:20:31;26.40;99.90
31769;DHT22;18342;52.132;21.048;2022-08-21T15:22:57;26.50;99.90
31769;DHT22;18342;52.132;21.048;2022-08-21T15:25:23;26.50;99.90
31769;DHT22;18342;52.132;21.048;2022-08-21T15:27:48;26.40;99.90
31769;DHT22;18342;52.132;21.048;2022-08-21T15:30:15;26.30;99.90
31769;DHT22;18342;52.132;21.048;2022-08-21T15:32:40;26.40;99.90
31769;DHT22;18342;52.132;21.048;2022-08-21T15:35:07;26.30;99.90
31769;DHT22;18342;52.132;21.048;2022-08-21T15:37:33;26.30;99.90
31769;DHT22;18342;52.132;21.048;2022-08-21T15:39:59;26.30;99.90
31769;DHT22;18342;52.132;21.048;2022-08-21T15:42:26;26.30;99.90
31769;DHT22;18342;52.132;21.048;2022-08-21T15:44:53;26.20;99.90
31769;DHT22;18342;52.132;21.048;2022-08-21T15:47:22;26.20;99.90
31769;DHT22;18342;52.132;21.048;2022-08-21T15:49:50;26.20;99.90
31769;DHT22;18342;52.132;21.048;2022-08-21T15:52:19;26.20;99.90
31769;DHT22;18342;52.132;21.048;2022-08-21T15:54:45;26.20;99.90
31769;DHT22;18342;52.132;21.048;2022-08-21T15:57:18;26.20;99.90
31769;DHT22;18342;52.132;21.048;2022-08-21T15:59:47;26.20;99.90
31769;DHT22;18342;52.132;21.048;2022-08-21T16:02:21;26.20;99.90
31769;DHT22;18342;52.132;21.048;2022-08-21T16:04:47;26.20;99.90
31769;DHT22;18342;52.132;21.048;2022-08-21T16:07:13;26.20;99.90
31769;DHT22;18342;52.132;21.048;2022-08-21T16:09:40;26.10;99.90
31769;DHT22;18342;52.132;21.048;2022-08-21T16:12:06;26.10;99.90
31769;DHT22;18342;52.132;21.048;2022-08-21T16:14:34;26.10;99.90
31769;DHT22;18342;52.132;21.048;2022-08-21T16:17:06;26.10;99.90
31769;DHT22;18342;52.132;21.048;2022-08-21T16:19:32;26.10;99.90
31769;DHT22;18342;52.132;21.048;2022-08-21T16:21:59;26.00;99.90
31769;DHT22;18342;52.132;21.048;2022-08-21T16:24:24;25.90;99.90
31769;DHT22;18342;52.132;21.048;2022-08-21T16:26:50;25.90;99.90
31769;DHT22;18342;52.132;21.048;2022-08-21T16:29:16;25.80;99.90
31769;DHT22;18342;52.132;21.048;2022-08-21T16:31:42;25.80;99.90
31769;DHT22;18342;52.132;21.048;2022-08-21T16:34:13;25.80;99.90
31769;DHT22;18342;52.132;21.048;2022-08-21T16:36:40;25.80;99.90
31769;DHT22;18342;52.132;21.048;2022-08-21T16:39:06;25.70;99.90
31769;DHT22;18342;52.132;21.048;2022-08-21T16:41:33;25.70;99.90
31769;DHT22;18342;52.132;21.048;2022-08-21T16:44:00;25.70;99.90
31769;DHT22;18342;52.132;21.048;2022-08-21T16:46:26;25.60;99.90
31769;DHT22;18342;52.132;21.048;2022-08-21T16:48:53;25.60;99.90